Time;durP1;ratioP1;P1;durP2;ratioP2;P2;SDS_P1;SDS_P2;PMS_P1;PMS_P2;Temp;Humidity;BMP_temperature;BMP_pressure;BME280_temperature;BME280_humidity;BME280_pressure;Samples;Min_cycle;Max_cycle;Signal;HPM_P1;HPM_P2
2020/12/07 00:01:17;;;;;;;49.30;38.00;;;;;;;;;;5050637;28;20196;-74
2020/12/07 00:04:02;;;;;;;54.13;38.83;;;;;;;;;;5049484;28;20201;-74
2020/12/07 00:06:51;;;;;;;52.33;39.03;;;;;;;;;;5049760;28;20201;-74
2020/12/07 00:09:36;;;;;;;67.63;50.78;;;;;;;;;;5048438;28;20947;-74
2020/12/07 00:12:24;;;;;;;55.57;39.37;;;;;;;;;;5050498;28;20333;-73
2020/12/07 00:15:09;;;;;;;49.10;36.13;;;;;;;;;;5049278;28;20269;-74
2020/12/07 00:17:53;;;;;;;48.37;35.80;;;;;;;;;;5032710;28;20712;-74
2020/12/07 00:20:38;;;;;;;44.17;33.27;;;;;;;;;;5030382;28;20209;-73
2020/12/07 00:23:23;;;;;;;44.83;32.40;;;;;;;;;;5037817;28;20204;-73
2020/12/07 00:26:10;;;;;;;43.13;33.57;;;;;;;;;;5049869;28;20221;-74
2020/12/07 00:28:58;;;;;;;46.20;34.67;;;;;;;;;;5049148;28;20615;-74
2020/12/07 00:31:42;;;;;;;50.33;35.97;;;;;;;;;;5051939;28;20300;-73
2020/12/07 00:34:27;;;;;;;52.30;37.03;;;;;;;;;;5052793;28;20213;-74
2020/12/07 00:37:12;;;;;;;49.90;36.03;;;;;;;;;;5052268;28;20221;-74
2020/12/07 00:39:57;;;;;;;47.97;35.20;;;;;;;;;;5033956;28;20935;-74
2020/12/07 00:42:41;;;;;;;45.43;34.03;;;;;;;;;;5038616;28;20209;-73
2020/12/07 00:45:26;;;;;;;45.50;34.00;;;;;;;;;;5053214;28;20240;-74
2020/12/07 00:48:10;;;;;;;44.80;34.20;;;;;;;;;;5052250;28;20220;-73
2020/12/07 00:50:55;;;;;;;45.37;33.80;;;;;;;;;;5053554;28;20197;-74
2020/12/07 00:53:39;;;;;;;43.90;33.30;;;;;;;;;;5052543;28;20570;-73
2020/12/07 00:56:25;;;;;;;46.13;34.13;;;;;;;;;;5052844;28;20229;-74
2020/12/07 00:59:10;;;;;;;45.27;33.83;;;;;;;;;;5053439;28;20409;-74
2020/12/07 01:01:55;;;;;;;44.07;34.50;;;;;;;;;;5052317;28;21569;-74
2020/12/07 01:04:40;;;;;;;41.47;33.00;;;;;;;;;;5053252;28;20225;-74
2020/12/07 01:07:25;;;;;;;45.77;35.37;;;;;;;;;;5051743;28;20766;-74
2020/12/07 01:10:09;;;;;;;51.13;38.97;;;;;;;;;;5053326;28;20285;-74
2020/12/07 01:12:55;;;;;;;47.43;37.50;;;;;;;;;;5051555;28;20206;-73
2020/12/07 01:15:39;;;;;;;49.07;37.00;;;;;;;;;;5052147;28;20245;-74
2020/12/07 01:18:24;;;;;;;50.13;38.60;;;;;;;;;;5052494;28;20220;-74
2020/12/07 01:21:08;;;;;;;48.70;37.67;;;;;;;;;;5053023;28;20244;-74
2020/12/07 01:23:53;;;;;;;46.93;37.40;;;;;;;;;;5032856;28;20728;-73
2020/12/07 01:26:38;;;;;;;47.83;36.50;;;;;;;;;;5036460;28;20688;-73
2020/12/07 01:29:23;;;;;;;48.30;36.03;;;;;;;;;;5053062;28;20683;-73
2020/12/07 01:32:07;;;;;;;48.07;36.27;;;;;;;;;;5051005;28;20217;-73
2020/12/07 01:34:52;;;;;;;45.57;36.17;;;;;;;;;;5052924;28;20613;-73
2020/12/07 01:37:37;;;;;;;49.47;38.33;;;;;;;;;;5051460;28;20623;-73
2020/12/07 01:40:22;;;;;;;59.43;41.57;;;;;;;;;;5052868;28;20290;-73
2020/12/07 01:43:06;;;;;;;58.73;44.13;;;;;;;;;;5051392;28;20220;-73
2020/12/07 01:45:52;;;;;;;74.00;53.85;;;;;;;;;;5050099;28;20495;-73
2020/12/07 01:48:36;;;;;;;60.77;43.73;;;;;;;;;;5052537;28;20197;-73
2020/12/07 01:51:22;;;;;;;62.13;43.10;;;;;;;;;;5051592;28;20580;-73
2020/12/07 01:54:06;;;;;;;61.87;44.30;;;;;;;;;;5052416;28;20700;-73
2020/12/07 01:56:52;;;;;;;59.83;41.63;;;;;;;;;;5050751;28;20229;-73
2020/12/07 01:59:36;;;;;;;65.70;44.07;;;;;;;;;;5052357;28;20351;-73
2020/12/07 02:02:23;;;;;;;53.30;42.30;;;;;;;;;;5051210;28;20222;-73
2020/12/07 02:05:07;;;;;;;64.77;43.87;;;;;;;;;;5052153;28;20351;-73
2020/12/07 02:08:07;;;;;;;58.17;43.70;;;;;;;;;;5051404;28;20201;-73
2020/12/07 02:10:51;;;;;;;58.40;41.93;;;;;;;;;;5050597;28;20568;-73
2020/12/07 02:13:36;;;;;;;57.63;41.23;;;;;;;;;;5052109;28;20213;-73
2020/12/07 02:16:21;;;;;;;58.47;41.37;;;;;;;;;;5050332;28;20751;-73
2020/12/07 02:19:06;;;;;;;65.13;42.83;;;;;;;;;;5051371;28;20591;-73
2020/12/07 02:21:51;;;;;;;61.00;41.87;;;;;;;;;;5050061;28;20740;-72
2020/12/07 02:24:36;;;;;;;66.77;42.13;;;;;;;;;;5051964;28;20299;-73
2020/12/07 02:27:21;;;;;;;62.30;42.70;;;;;;;;;;5051265;28;20271;-73
2020/12/07 02:30:05;;;;;;;69.87;45.40;;;;;;;;;;5051005;28;20724;-72
2020/12/07 02:32:50;;;;;;;62.80;44.33;;;;;;;;;;5051927;28;20256;-73
2020/12/07 02:35:35;;;;;;;66.60;45.07;;;;;;;;;;5050588;28;20264;-72
2020/12/07 02:38:20;;;;;;;62.27;43.50;;;;;;;;;;5051670;28;20209;-72
2020/12/07 02:41:05;;;;;;;68.47;43.40;;;;;;;;;;5050618;28;20209;-72
2020/12/07 02:43:49;;;;;;;63.10;42.17;;;;;;;;;;5051273;28;20201;-73
2020/12/07 02:46:34;;;;;;;68.47;44.53;;;;;;;;;;5048408;28;20784;-73
2020/12/07 02:49:18;;;;;;;64.30;40.40;;;;;;;;;;5051625;28;20197;-74
2020/12/07 02:52:03;;;;;;;50.07;36.40;;;;;;;;;;5051339;28;20699;-73
2020/12/07 02:54:48;;;;;;;58.87;39.87;;;;;;;;;;5049839;28;20719;-74
2020/12/07 02:57:33;;;;;;;56.93;38.73;;;;;;;;;;5050623;28;20236;-73
2020/12/07 03:00:17;;;;;;;64.57;39.23;;;;;;;;;;5049082;28;20208;-73
2020/12/07 03:03:02;;;;;;;55.53;38.57;;;;;;;;;;5051210;28;20204;-73
2020/12/07 03:05:46;;;;;;;56.20;37.80;;;;;;;;;;5049917;28;20279;-73
2020/12/07 03:08:31;;;;;;;57.33;38.43;;;;;;;;;;5051128;28;20288;-73
2020/12/07 03:11:16;;;;;;;60.97;39.00;;;;;;;;;;5049840;28;20699;-73
2020/12/07 03:14:01;;;;;;;63.47;41.33;;;;;;;;;;5050269;28;20341;-73
2020/12/07 03:16:45;;;;;;;60.23;40.37;;;;;;;;;;5049467;28;20272;-73
2020/12/07 03:19:30;;;;;;;59.63;41.53;;;;;;;;;;5050030;28;20205;-73
2020/12/07 03:22:15;;;;;;;60.75;42.63;;;;;;;;;;5050748;28;20412;-73
2020/12/07 03:25:00;;;;;;;55.43;40.07;;;;;;;;;;5049577;28;20224;-73
2020/12/07 03:27:45;;;;;;;49.90;36.73;;;;;;;;;;5050610;28;20204;-73
2020/12/07 03:30:30;;;;;;;50.27;36.40;;;;;;;;;;5048885;28;20318;-73
2020/12/07 03:33:14;;;;;;;50.13;36.43;;;;;;;;;;5051098;28;20794;-73
2020/12/07 03:35:59;;;;;;;47.90;36.87;;;;;;;;;;5048342;28;20241;-73
2020/12/07 03:38:44;;;;;;;44.53;33.13;;;;;;;;;;5033680;28;20205;-72
2020/12/07 03:41:28;;;;;;;45.30;34.47;;;;;;;;;;5050913;28;20305;-73
2020/12/07 03:44:13;;;;;;;43.60;32.33;;;;;;;;;;5049554;28;20591;-73
2020/12/07 03:46:58;;;;;;;48.67;33.43;;;;;;;;;;5049544;28;20229;-73
2020/12/07 03:49:47;;;;;;;47.83;32.90;;;;;;;;;;5049574;28;20217;-73
2020/12/07 03:52:32;;;;;;;45.93;32.63;;;;;;;;;;5049377;28;20209;-73
2020/12/07 03:55:16;;;;;;;40.70;31.33;;;;;;;;;;5050498;28;20356;-73
2020/12/07 03:58:01;;;;;;;46.20;33.13;;;;;;;;;;5041501;28;20257;-73
2020/12/07 04:00:46;;;;;;;44.67;32.33;;;;;;;;;;5030636;28;20202;-73
2020/12/07 04:03:31;;;;;;;43.70;32.07;;;;;;;;;;5030661;28;20214;-72
2020/12/07 04:06:17;;;;;;;43.20;31.40;;;;;;;;;;5032760;28;20217;-73
2020/12/07 04:09:01;;;;;;;47.57;32.83;;;;;;;;;;5037857;28;20206;-73
2020/12/07 04:11:46;;;;;;;41.47;31.50;;;;;;;;;;5053310;28;20719;-73
2020/12/07 04:14:30;;;;;;;44.00;31.63;;;;;;;;;;5052922;28;20263;-73
2020/12/07 04:17:16;;;;;;;39.57;30.07;;;;;;;;;;5050276;28;20225;-73
2020/12/07 04:20:00;;;;;;;39.43;30.63;;;;;;;;;;5046376;28;20301;-73
2020/12/07 04:22:45;;;;;;;42.70;31.23;;;;;;;;;;5034480;28;20704;-73
2020/12/07 04:25:29;;;;;;;39.17;30.30;;;;;;;;;;5051924;28;20220;-73
2020/12/07 04:28:14;;;;;;;39.33;28.90;;;;;;;;;;5053997;28;20209;-73
2020/12/07 04:30:59;;;;;;;37.73;27.90;;;;;;;;;;5054028;28;20275;-73
2020/12/07 04:33:44;;;;;;;37.20;27.87;;;;;;;;;;5054023;28;20210;-73
2020/12/07 04:36:29;;;;;;;42.33;30.83;;;;;;;;;;5053312;28;20697;-73
2020/12/07 04:39:13;;;;;;;46.07;34.90;;;;;;;;;;5053854;28;20562;-73
2020/12/07 04:41:58;;;;;;;55.43;39.93;;;;;;;;;;5053798;28;20339;-73
2020/12/07 04:44:42;;;;;;;40.50;30.73;;;;;;;;;;5051457;28;20360;-72
2020/12/07 04:47:28;;;;;;;48.80;34.40;;;;;;;;;;5041850;28;20200;-72
2020/12/07 04:50:14;;;;;;;50.73;38.17;;;;;;;;;;5053635;28;20703;-73
2020/12/07 04:52:58;;;;;;;41.10;32.33;;;;;;;;;;5033634;28;20202;-73
2020/12/07 04:55:43;;;;;;;42.90;33.30;;;;;;;;;;5033560;28;20225;-73
2020/12/07 04:58:27;;;;;;;41.20;34.43;;;;;;;;;;5033368;28;20367;-73
2020/12/07 05:01:12;;;;;;;43.40;33.97;;;;;;;;;;5033303;28;20240;-73
2020/12/07 05:03:56;;;;;;;52.20;37.37;;;;;;;;;;5043451;28;20688;-73
2020/12/07 05:06:42;;;;;;;46.80;35.27;;;;;;;;;;5052889;28;20276;-73
2020/12/07 05:09:26;;;;;;;47.70;36.47;;;;;;;;;;5041944;28;20337;-73
2020/12/07 05:12:16;;;;;;;47.00;37.23;;;;;;;;;;5043236;28;20217;-73
2020/12/07 05:15:00;;;;;;;48.50;35.27;;;;;;;;;;5037585;28;20583;-73
2020/12/07 05:17:46;;;;;;;49.77;36.80;;;;;;;;;;5044120;28;20236;-73
2020/12/07 05:20:31;;;;;;;46.33;36.10;;;;;;;;;;5039236;28;20299;-73
2020/12/07 05:23:16;;;;;;;53.63;38.30;;;;;;;;;;5051935;28;20208;-73
2020/12/07 05:26:01;;;;;;;47.20;36.60;;;;;;;;;;5047871;28;20701;-72
2020/12/07 05:28:49;;;;;;;49.80;38.00;;;;;;;;;;5047653;28;20335;-72
2020/12/07 05:31:33;;;;;;;50.23;38.03;;;;;;;;;;5047082;28;20206;-73
2020/12/07 05:34:23;;;;;;;66.30;54.42;;;;;;;;;;5031729;28;20414;-73
2020/12/07 05:37:07;;;;;;;55.17;41.07;;;;;;;;;;5048580;28;20272;-72
2020/12/07 05:39:53;;;;;;;53.90;38.67;;;;;;;;;;5052788;28;20264;-73
2020/12/07 05:42:38;;;;;;;48.60;36.87;;;;;;;;;;5051608;28;20205;-72
2020/12/07 05:45:22;;;;;;;51.00;36.47;;;;;;;;;;5050918;28;20232;-72
2020/12/07 05:48:07;;;;;;;51.23;36.37;;;;;;;;;;5052112;28;20550;-73
2020/12/07 05:50:53;;;;;;;51.30;36.30;;;;;;;;;;5051408;28;20208;-72
2020/12/07 05:53:38;;;;;;;44.87;34.30;;;;;;;;;;5052451;28;20559;-72
2020/12/07 05:56:24;;;;;;;43.30;33.80;;;;;;;;;;5050663;28;20221;-72
2020/12/07 05:59:13;;;;;;;41.13;32.43;;;;;;;;;;5045869;28;20904;-72
2020/12/07 06:01:59;;;;;;;43.27;33.20;;;;;;;;;;5049702;28;20209;-72
2020/12/07 06:04:43;;;;;;;41.80;31.73;;;;;;;;;;5045494;28;20229;-72
2020/12/07 06:07:31;;;;;;;42.33;32.47;;;;;;;;;;5031836;28;20257;-73
2020/12/07 06:10:16;;;;;;;43.23;31.07;;;;;;;;;;5032419;28;20206;-73
2020/12/07 06:13:04;;;;;;;42.03;30.60;;;;;;;;;;5032502;28;20201;-72
2020/12/07 06:15:48;;;;;;;39.73;30.97;;;;;;;;;;5031828;28;20703;-73
2020/12/07 06:18:34;;;;;;;41.63;32.27;;;;;;;;;;5051824;28;20224;-72
2020/12/07 06:21:19;;;;;;;41.77;32.30;;;;;;;;;;5051637;28;20202;-73
2020/12/07 06:24:04;;;;;;;45.87;33.37;;;;;;;;;;5051865;28;20217;-73
2020/12/07 06:27:00;;;;;;;41.57;32.13;;;;;;;;;;5051022;28;20293;-73
2020/12/07 06:29:58;;;;;;;40.63;31.93;;;;;;;;;;5050836;28;20201;-72
2020/12/07 06:32:43;;;;;;;46.60;34.60;;;;;;;;;;5051752;28;20201;-73
2020/12/07 06:35:27;;;;;;;46.30;34.10;;;;;;;;;;5051591;28;20721;-73
2020/12/07 06:38:12;;;;;;;46.97;35.17;;;;;;;;;;5045216;28;20260;-73
2020/12/07 06:40:58;;;;;;;48.37;35.57;;;;;;;;;;5036441;28;20218;-72
2020/12/07 06:43:56;;;;;;;46.83;34.80;;;;;;;;;;5051377;28;20201;-72
2020/12/07 06:46:58;;;;;;;48.77;35.40;;;;;;;;;;5036349;28;20288;-72
2020/12/07 06:49:51;;;;;;;48.30;36.40;;;;;;;;;;5031463;28;20305;-73
2020/12/07 06:52:37;;;;;;;48.53;37.40;;;;;;;;;;5031467;28;20669;-72
2020/12/07 06:55:21;;;;;;;45.40;33.37;;;;;;;;;;5031076;28;20221;-72
2020/12/07 06:58:06;;;;;;;43.50;32.83;;;;;;;;;;5038201;28;20259;-72
2020/12/07 07:00:50;;;;;;;36.57;29.30;;;;;;;;;;5039957;28;20272;-73
2020/12/07 07:03:37;;;;;;;37.20;29.60;;;;;;;;;;5031543;28;20265;-73
2020/12/07 07:06:22;;;;;;;45.73;30.43;;;;;;;;;;5048210;28;20327;-74
2020/12/07 07:09:06;;;;;;;36.33;27.03;;;;;;;;;;5045217;28;20213;-72
2020/12/07 07:11:51;;;;;;;38.13;27.17;;;;;;;;;;5035749;28;20218;-72
2020/12/07 07:14:35;;;;;;;36.57;27.40;;;;;;;;;;5038355;28;20224;-76
2020/12/07 07:17:20;;;;;;;35.23;26.57;;;;;;;;;;5046883;28;20348;-74
2020/12/07 07:20:06;;;;;;;34.03;26.90;;;;;;;;;;5049692;28;20730;-74
2020/12/07 07:22:51;;;;;;;38.00;28.40;;;;;;;;;;5050932;28;20220;-74
2020/12/07 07:25:50;;;;;;;41.33;29.77;;;;;;;;;;5046748;28;20361;-76
2020/12/07 07:28:35;;;;;;;36.40;27.83;;;;;;;;;;5041003;28;20248;-76
2020/12/07 07:31:19;;;;;;;36.97;28.83;;;;;;;;;;5050751;28;20225;-75
2020/12/07 07:34:04;;;;;;;40.93;31.47;;;;;;;;;;5049669;28;20717;-76
2020/12/07 07:36:49;;;;;;;41.77;30.77;;;;;;;;;;5047879;28;20205;-77
2020/12/07 07:39:34;;;;;;;35.57;29.93;;;;;;;;;;5046973;28;20727;-85
2020/12/07 07:42:19;;;;;;;37.83;30.13;;;;;;;;;;5054180;28;20224;-83
2020/12/07 07:45:03;;;;;;;37.87;30.20;;;;;;;;;;5050521;28;20287;-82
2020/12/07 07:47:56;;;;;;;36.60;29.13;;;;;;;;;;5035331;28;20198;-80
2020/12/07 07:50:59;;;;;;;37.87;29.33;;;;;;;;;;5054722;28;20725;-80
2020/12/07 07:54:23;;;;;;;35.10;28.87;;;;;;;;;;5053373;28;20221;-75
2020/12/07 08:01:01;;;;;;;34.07;27.50;;;;;;;;;;5043332;28;20212;-81
2020/12/07 08:16:13;;;;;;;36.97;28.33;;;;;;;;;;5052883;28;20217;-78
2020/12/07 08:18:59;;;;;;;33.23;27.73;;;;;;;;;;5051745;28;20316;-77
2020/12/07 08:21:44;;;;;;;35.73;27.30;;;;;;;;;;5053197;28;20221;-76
2020/12/07 08:24:28;;;;;;;34.13;28.57;;;;;;;;;;5053805;28;20237;-76
2020/12/07 08:27:13;;;;;;;35.83;28.83;;;;;;;;;;5051698;28;20208;-78
2020/12/07 08:29:59;;;;;;;32.10;27.33;;;;;;;;;;5050769;28;20272;-76
2020/12/07 08:32:44;;;;;;;29.93;25.73;;;;;;;;;;5052995;28;20212;-75
2020/12/07 08:35:28;;;;;;;32.80;27.17;;;;;;;;;;5052362;28;20221;-75
2020/12/07 08:38:22;;;;;;;33.00;26.90;;;;;;;;;;5052114;28;20225;-78
2020/12/07 08:41:08;;;;;;;31.57;26.10;;;;;;;;;;5033762;28;20880;-75
2020/12/07 08:43:54;;;;;;;31.27;26.07;;;;;;;;;;5053282;28;20244;-78
2020/12/07 08:46:39;;;;;;;31.40;26.17;;;;;;;;;;5050521;28;20272;-79
2020/12/07 08:49:23;;;;;;;30.27;27.03;;;;;;;;;;5048722;28;20209;-73
2020/12/07 08:52:08;;;;;;;32.67;26.43;;;;;;;;;;5035575;28;20206;-73
2020/12/07 08:54:52;;;;;;;33.43;27.87;;;;;;;;;;5053458;28;20225;-73
2020/12/07 08:57:37;;;;;;;32.87;28.53;;;;;;;;;;5052554;28;20217;-73
2020/12/07 09:00:23;;;;;;;29.97;26.77;;;;;;;;;;5053137;28;20201;-73
2020/12/07 09:03:07;;;;;;;32.17;28.63;;;;;;;;;;5052819;28;20201;-76
2020/12/07 09:05:51;;;;;;;33.03;29.17;;;;;;;;;;5047009;28;20209;-74
2020/12/07 09:08:36;;;;;;;32.00;28.53;;;;;;;;;;5038202;28;20203;-75
2020/12/07 09:11:21;;;;;;;34.10;29.17;;;;;;;;;;5033257;28;20201;-75
2020/12/07 09:14:06;;;;;;;34.17;30.47;;;;;;;;;;5040693;28;20306;-75
2020/12/07 09:16:52;;;;;;;33.10;28.80;;;;;;;;;;5052364;28;20210;-75
2020/12/07 09:19:37;;;;;;;34.80;31.00;;;;;;;;;;5052522;28;20208;-75
2020/12/07 09:22:22;;;;;;;35.30;30.73;;;;;;;;;;5052832;28;20204;-75
2020/12/07 09:25:06;;;;;;;32.93;29.50;;;;;;;;;;5053000;28;20428;-74
2020/12/07 09:27:50;;;;;;;35.10;31.37;;;;;;;;;;5052214;28;20209;-74
2020/12/07 09:30:35;;;;;;;33.43;29.83;;;;;;;;;;5052942;28;20201;-74
2020/12/07 09:33:21;;;;;;;36.60;32.03;;;;;;;;;;5052715;28;20625;-74
2020/12/07 09:36:05;;;;;;;38.83;33.20;;;;;;;;;;5052393;28;20221;-75
2020/12/07 09:38:50;;;;;;;33.50;29.93;;;;;;;;;;5052454;28;20319;-75
2020/12/07 09:41:35;;;;;;;33.20;29.60;;;;;;;;;;5044146;28;20260;-75
2020/12/07 09:44:19;;;;;;;35.43;30.77;;;;;;;;;;5050379;28;20299;-75
2020/12/07 09:47:04;;;;;;;35.43;30.27;;;;;;;;;;5044853;28;20229;-75
2020/12/07 09:49:50;;;;;;;46.75;42.13;;;;;;;;;;5031159;28;20449;-75
2020/12/07 09:52:34;;;;;;;38.33;33.97;;;;;;;;;;5032497;28;20249;-75
2020/12/07 09:55:19;;;;;;;38.90;33.13;;;;;;;;;;5032195;28;20341;-75
2020/12/07 09:58:03;;;;;;;35.13;31.33;;;;;;;;;;5050127;28;20725;-75
2020/12/07 10:00:48;;;;;;;36.77;31.70;;;;;;;;;;5032431;28;20207;-76
2020/12/07 10:03:32;;;;;;;36.17;31.60;;;;;;;;;;5034753;28;20362;-77
2020/12/07 10:06:18;;;;;;;34.73;31.00;;;;;;;;;;5040564;28;20740;-78
2020/12/07 10:09:02;;;;;;;35.03;30.77;;;;;;;;;;5045930;28;20211;-77
2020/12/07 10:11:47;;;;;;;36.80;31.33;;;;;;;;;;5050035;28;20562;-78
2020/12/07 10:14:31;;;;;;;39.33;34.33;;;;;;;;;;5051900;28;20579;-75
2020/12/07 10:17:16;;;;;;;43.57;36.67;;;;;;;;;;5051194;28;20217;-77
2020/12/07 10:20:00;;;;;;;37.60;32.53;;;;;;;;;;5042885;28;20209;-77
2020/12/07 10:22:46;;;;;;;46.88;41.97;;;;;;;;;;5042272;28;20426;-77
2020/12/07 10:25:30;;;;;;;42.13;36.40;;;;;;;;;;5033097;28;20229;-80
2020/12/07 10:28:15;;;;;;;40.37;35.90;;;;;;;;;;5050185;28;20197;-80
2020/12/07 10:30:59;;;;;;;41.17;36.43;;;;;;;;;;5040127;28;20206;-79
2020/12/07 10:33:44;;;;;;;41.17;34.23;;;;;;;;;;5044892;28;20221;-79
2020/12/07 10:36:28;;;;;;;40.30;35.33;;;;;;;;;;5048033;28;20213;-77
2020/12/07 10:39:14;;;;;;;38.97;34.77;;;;;;;;;;5051024;28;20231;-81
2020/12/07 10:41:58;;;;;;;39.83;35.13;;;;;;;;;;5051368;28;20790;-79
2020/12/07 10:44:43;;;;;;;41.23;35.07;;;;;;;;;;5047446;28;20699;-80
2020/12/07 10:47:27;;;;;;;45.53;36.87;;;;;;;;;;5044809;28;20684;-78
2020/12/07 10:50:12;;;;;;;42.90;37.13;;;;;;;;;;5049324;28;20202;-80
2020/12/07 10:52:56;;;;;;;47.17;40.07;;;;;;;;;;5042424;28;20255;-78
2020/12/07 10:55:42;;;;;;;48.93;40.73;;;;;;;;;;5040621;28;20205;-73
2020/12/07 10:58:26;;;;;;;46.50;38.37;;;;;;;;;;5036972;28;20581;-73
2020/12/07 11:01:11;;;;;;;53.00;40.60;;;;;;;;;;5040438;28;20280;-73
2020/12/07 11:03:56;;;;;;;48.80;41.20;;;;;;;;;;5044666;28;20225;-74
2020/12/07 11:06:42;;;;;;;57.37;44.50;;;;;;;;;;5043370;28;20241;-74
2020/12/07 11:09:26;;;;;;;53.43;40.97;;;;;;;;;;5048016;28;20259;-73
2020/12/07 11:12:14;;;;;;;59.70;43.27;;;;;;;;;;5048510;28;20217;-75
2020/12/07 11:14:59;;;;;;;53.17;41.70;;;;;;;;;;5050406;28;20232;-75
2020/12/07 11:17:43;;;;;;;53.47;41.90;;;;;;;;;;5050250;28;20233;-75
2020/12/07 11:20:28;;;;;;;56.40;43.93;;;;;;;;;;5050996;28;20664;-74
2020/12/07 11:23:13;;;;;;;60.17;48.55;;;;;;;;;;5050623;28;20423;-75
2020/12/07 11:25:57;;;;;;;56.97;45.03;;;;;;;;;;5050397;28;20723;-75
2020/12/07 11:28:43;;;;;;;55.17;43.03;;;;;;;;;;5050948;28;20220;-74
2020/12/07 11:31:28;;;;;;;59.93;44.37;;;;;;;;;;5051412;28;20550;-75
2020/12/07 11:34:12;;;;;;;60.70;46.07;;;;;;;;;;5050985;28;20352;-74
2020/12/07 11:36:57;;;;;;;67.17;49.60;;;;;;;;;;5050663;28;20673;-74
2020/12/07 11:39:50;;;;;;;58.33;44.43;;;;;;;;;;5050820;28;20287;-75
2020/12/07 11:42:42;;;;;;;59.10;45.93;;;;;;;;;;5050907;28;20202;-75
2020/12/07 11:45:27;;;;;;;59.50;45.13;;;;;;;;;;5050723;28;20341;-75
2020/12/07 11:48:11;;;;;;;57.53;42.23;;;;;;;;;;5050227;28;20680;-75
2020/12/07 11:50:56;;;;;;;53.93;41.87;;;;;;;;;;5050735;28;20208;-75
2020/12/07 11:53:40;;;;;;;52.70;40.60;;;;;;;;;;5050603;28;20712;-75
2020/12/07 11:56:26;;;;;;;52.57;41.50;;;;;;;;;;5050170;28;20248;-75
2020/12/07 11:59:11;;;;;;;53.43;40.10;;;;;;;;;;5050440;28;20228;-75
2020/12/07 12:01:56;;;;;;;51.53;40.20;;;;;;;;;;5050612;28;20671;-75
2020/12/07 12:04:40;;;;;;;47.80;38.47;;;;;;;;;;5050495;28;20344;-75
2020/12/07 12:07:25;;;;;;;54.13;40.60;;;;;;;;;;5050151;28;20229;-76
2020/12/07 12:10:09;;;;;;;50.77;39.70;;;;;;;;;;5050836;28;20620;-75
2020/12/07 12:12:54;;;;;;;48.73;38.30;;;;;;;;;;5050578;28;20206;-75
2020/12/07 12:15:39;;;;;;;50.67;38.73;;;;;;;;;;5050450;28;20205;-75
2020/12/07 12:18:24;;;;;;;50.60;39.00;;;;;;;;;;5050019;28;20714;-75
2020/12/07 12:21:09;;;;;;;48.93;36.40;;;;;;;;;;5050413;28;20201;-75
2020/12/07 12:23:53;;;;;;;50.57;37.27;;;;;;;;;;5050322;28;20221;-75
2020/12/07 12:26:40;;;;;;;47.67;35.77;;;;;;;;;;5051816;28;20201;-75
2020/12/07 12:29:24;;;;;;;47.97;36.07;;;;;;;;;;5054230;28;20221;-75
2020/12/07 12:32:08;;;;;;;43.00;34.30;;;;;;;;;;5053987;28;20213;-75
2020/12/07 12:34:54;;;;;;;45.80;35.73;;;;;;;;;;5053947;28;20340;-75
2020/12/07 12:37:38;;;;;;;42.20;33.47;;;;;;;;;;5053413;28;20221;-75
2020/12/07 12:40:23;;;;;;;46.17;34.23;;;;;;;;;;5053565;28;20762;-74
2020/12/07 12:43:08;;;;;;;44.97;31.90;;;;;;;;;;5053943;28;20783;-75
2020/12/07 12:45:53;;;;;;;41.80;31.60;;;;;;;;;;5053500;28;20325;-75
2020/12/07 12:48:37;;;;;;;44.87;32.40;;;;;;;;;;5053690;28;20197;-75
2020/12/07 12:51:23;;;;;;;40.60;30.57;;;;;;;;;;5053776;28;20205;-75
2020/12/07 12:54:07;;;;;;;44.97;32.90;;;;;;;;;;5053584;28;20217;-74
2020/12/07 12:56:52;;;;;;;43.63;31.40;;;;;;;;;;5053075;28;20336;-75
2020/12/07 12:59:36;;;;;;;43.65;32.88;;;;;;;;;;5053593;28;20420;-74
2020/12/07 13:02:21;;;;;;;40.37;30.30;;;;;;;;;;5053385;28;20683;-75
2020/12/07 13:05:06;;;;;;;39.33;30.77;;;;;;;;;;5053390;28;20703;-75
2020/12/07 13:07:51;;;;;;;43.40;30.83;;;;;;;;;;5052901;28;20292;-75
2020/12/07 13:10:36;;;;;;;44.70;31.53;;;;;;;;;;5053505;28;20321;-75
2020/12/07 13:13:20;;;;;;;43.07;31.23;;;;;;;;;;5053602;28;20589;-75
2020/12/07 13:16:08;;;;;;;45.07;32.20;;;;;;;;;;5052690;28;20256;-75
2020/12/07 13:18:55;;;;;;;35.53;29.23;;;;;;;;;;5020139;22;20258;-72
2020/12/07 13:21:42;;;;;;;38.63;30.33;;;;;;;;;;4993881;28;20197;-72
2020/12/07 13:24:34;;;;;;;41.73;31.73;;;;;;;;;;4993839;28;20583;-72
2020/12/07 13:27:26;;;;;;;42.30;32.40;;;;;;;;;;4993424;28;20207;-72
2020/12/07 13:30:11;;;;;;;40.10;32.10;;;;;;;;;;4994091;28;20216;-72
2020/12/07 13:32:55;;;;;;;50.33;40.70;;;;;;;;;;4992422;28;20401;-72
2020/12/07 13:35:41;;;;;;;41.40;32.90;;;;;;;;;;4993727;28;20204;-72
2020/12/07 13:38:25;;;;;;;38.40;30.73;;;;;;;;;;4992909;28;20306;-72
2020/12/07 13:41:11;;;;;;;35.77;29.30;;;;;;;;;;4993548;28;20203;-72
2020/12/07 13:43:55;;;;;;;42.20;31.77;;;;;;;;;;4993405;28;20223;-72
2020/12/07 13:46:40;;;;;;;40.90;30.40;;;;;;;;;;4993201;28;20207;-72
2020/12/07 13:49:24;;;;;;;36.47;30.00;;;;;;;;;;4993258;28;20709;-72
2020/12/07 13:52:09;;;;;;;41.93;32.07;;;;;;;;;;4993542;28;20208;-72
2020/12/07 13:54:54;;;;;;;38.47;30.37;;;;;;;;;;4993028;28;20226;-72
2020/12/07 13:57:39;;;;;;;40.80;32.03;;;;;;;;;;4992631;28;20845;-72
2020/12/07 14:00:24;;;;;;;37.33;31.17;;;;;;;;;;4993222;28;20207;-72
2020/12/07 14:03:08;;;;;;;39.97;31.70;;;;;;;;;;4993065;28;20222;-72
2020/12/07 14:05:53;;;;;;;45.43;34.87;;;;;;;;;;4992555;28;20502;-72
2020/12/07 14:08:38;;;;;;;38.67;31.27;;;;;;;;;;4992959;28;20208;-72
2020/12/07 14:11:22;;;;;;;41.63;32.57;;;;;;;;;;4992982;28;20203;-72
2020/12/07 14:14:07;;;;;;;40.97;33.23;;;;;;;;;;4992796;28;20227;-72
2020/12/07 14:16:58;;;;;;;39.00;31.07;;;;;;;;;;4992298;28;20220;-71
2020/12/07 14:19:56;;;;;;;35.50;29.77;;;;;;;;;;4992539;28;20244;-72
2020/12/07 14:22:53;;;;;;;36.63;28.97;;;;;;;;;;4992626;28;20287;-72
2020/12/07 14:25:54;;;;;;;35.83;30.70;;;;;;;;;;4992660;28;20331;-72
2020/12/07 14:40:52;;;;;;;45.20;34.87;;;;;;;;;;4992719;28;20566;-72
2020/12/07 14:43:37;;;;;;;41.20;32.23;;;;;;;;;;4992416;28;20222;-71
2020/12/07 14:46:22;;;;;;;41.23;31.87;;;;;;;;;;4991701;28;20616;-72
2020/12/07 14:49:08;;;;;;;44.13;33.87;;;;;;;;;;4991792;28;20205;-72
2020/12/07 14:51:56;;;;;;;45.10;35.03;;;;;;;;;;4992056;28;20730;-72
2020/12/07 14:54:45;;;;;;;45.07;34.53;;;;;;;;;;4992217;28;20227;-71
2020/12/07 15:05:21;;;;;;;44.93;34.30;;;;;;;;;;4991772;28;20660;-72
2020/12/07 15:07:31;;;;;;;46.20;35.93;;;;;;;;;;4991347;28;20599;-72
2020/12/07 15:16:33;;;;;;;58.53;41.53;;;;;;;;;;4991104;28;20203;-72
2020/12/07 15:19:17;;;;;;;50.63;39.50;;;;;;;;;;4991499;28;20339;-72
2020/12/07 15:22:05;;;;;;;56.53;39.63;;;;;;;;;;4991789;28;20246;-72
2020/12/07 15:24:50;;;;;;;51.67;38.07;;;;;;;;;;4991642;28;20613;-72
2020/12/07 15:27:34;;;;;;;52.97;39.23;;;;;;;;;;4991263;28;20270;-72
2020/12/07 15:30:19;;;;;;;57.13;40.57;;;;;;;;;;4991748;28;20219;-72
2020/12/07 15:33:04;;;;;;;62.07;41.37;;;;;;;;;;4992127;28;20223;-72
2020/12/07 15:35:49;;;;;;;55.57;39.97;;;;;;;;;;4991673;28;20282;-72
2020/12/07 15:38:34;;;;;;;59.93;41.67;;;;;;;;;;4991536;28;20231;-72
2020/12/07 15:41:19;;;;;;;52.87;40.23;;;;;;;;;;4991479;28;20227;-72
2020/12/07 15:44:03;;;;;;;61.23;42.30;;;;;;;;;;4991519;28;20243;-72
2020/12/07 15:46:48;;;;;;;64.20;44.43;;;;;;;;;;4991126;28;20210;-72
2020/12/07 15:49:32;;;;;;;66.17;44.87;;;;;;;;;;4991518;28;20216;-72
2020/12/07 15:52:17;;;;;;;71.53;51.00;;;;;;;;;;4991223;28;20279;-72
2020/12/07 15:55:01;;;;;;;76.00;51.27;;;;;;;;;;4991513;28;20566;-72
2020/12/07 15:57:47;;;;;;;68.00;48.37;;;;;;;;;;4991124;28;20597;-72
2020/12/07 16:00:31;;;;;;;75.87;48.93;;;;;;;;;;4991322;28;20211;-72
2020/12/07 16:03:16;;;;;;;65.73;46.30;;;;;;;;;;4995069;28;20215;-72
2020/12/07 16:06:00;;;;;;;73.60;47.47;;;;;;;;;;4994698;28;20199;-71
2020/12/07 16:08:45;;;;;;;97.93;65.38;;;;;;;;;;4994075;28;20436;-71
2020/12/07 16:11:29;;;;;;;74.30;50.23;;;;;;;;;;4995136;28;20679;-72
2020/12/07 16:14:15;;;;;;;76.17;49.23;;;;;;;;;;4994940;28;20244;-72
2020/12/07 16:16:59;;;;;;;70.87;46.63;;;;;;;;;;4994520;28;20207;-72
2020/12/07 16:19:44;;;;;;;80.90;48.53;;;;;;;;;;4994509;28;20230;-72
2020/12/07 16:22:28;;;;;;;71.73;47.53;;;;;;;;;;4994969;28;20566;-72
2020/12/07 16:25:13;;;;;;;73.80;47.50;;;;;;;;;;4994732;28;20203;-72
2020/12/07 16:27:58;;;;;;;71.30;48.93;;;;;;;;;;4994037;28;20207;-72
2020/12/07 16:30:43;;;;;;;83.07;51.17;;;;;;;;;;4994752;28;20247;-72
2020/12/07 16:33:27;;;;;;;76.20;49.70;;;;;;;;;;4994666;28;20343;-72
2020/12/07 16:36:12;;;;;;;80.37;50.30;;;;;;;;;;4994089;28;20311;-72
2020/12/07 16:38:56;;;;;;;81.37;50.40;;;;;;;;;;4994423;28;20274;-73
2020/12/07 16:41:41;;;;;;;71.97;49.57;;;;;;;;;;4994734;28;20199;-72
2020/12/07 16:44:25;;;;;;;78.90;50.60;;;;;;;;;;4994489;28;20757;-72